createdAt,value
2018-05-02T00:01:29.148Z,10.65
2018-05-02T00:02:28.955Z,10.72
2018-05-02T00:04:25.139Z,10.68
2018-05-02T00:05:24.956Z,10.58
2018-05-02T00:07:20.941Z,10.58
2018-05-02T00:08:20.851Z,10.54
2018-05-02T00:10:16.837Z,10.45
2018-05-02T00:11:16.710Z,10.48
2018-05-02T00:13:12.730Z,10.35
2018-05-02T00:14:12.589Z,10.39
2018-05-02T00:16:08.569Z,10.38
2018-05-02T00:17:08.483Z,10.35
2018-05-02T00:19:02.064Z,10.21
2018-05-02T00:20:01.967Z,10.18
2018-05-02T00:21:58.081Z,9.98
2018-05-02T00:22:57.962Z,9.98
2018-05-02T00:24:53.968Z,10.02
2018-05-02T00:25:53.839Z,9.93
2018-05-02T00:27:47.377Z,10.01
2018-05-02T00:28:47.208Z,10.01
2018-05-02T00:30:43.258Z,9.88
2018-05-02T00:31:43.164Z,9.70
2018-05-02T00:33:39.189Z,9.77
2018-05-02T00:34:38.983Z,9.78
2018-05-02T00:36:35.652Z,9.72
2018-05-02T00:38:51.610Z,9.80
2018-05-02T00:39:51.467Z,9.77
2018-05-02T00:41:47.483Z,9.75
2018-05-02T00:42:47.370Z,9.78
2018-05-02T00:44:54.064Z,9.80
2018-05-02T00:45:53.960Z,9.78
2018-05-02T00:47:49.921Z,9.72
2018-05-02T00:48:49.842Z,9.72
2018-05-02T00:50:43.416Z,9.91
2018-05-02T00:51:43.196Z,9.84
2018-05-02T00:53:40.456Z,9.85
2018-05-02T00:54:39.131Z,9.80
2018-05-02T00:56:35.195Z,9.80
2018-05-02T00:57:35.010Z,9.78
2018-05-02T00:59:31.020Z,9.75
2018-05-02T01:00:30.899Z,9.70
2018-05-02T01:02:25.491Z,9.73
2018-05-02T01:03:25.340Z,9.69
2018-05-02T01:05:21.463Z,9.66
2018-05-02T01:06:21.342Z,9.45
2018-05-02T01:08:17.357Z,9.26
2018-05-02T01:09:17.251Z,9.19
2018-05-02T01:11:10.757Z,9.30
2018-05-02T01:12:10.643Z,9.27
2018-05-02T01:14:06.670Z,9.37
2018-05-02T01:15:06.507Z,9.23
2018-05-02T01:17:03.429Z,9.37
2018-05-02T01:18:03.301Z,9.26
2018-05-02T01:19:59.321Z,9.37
2018-05-02T01:20:59.215Z,9.42
2018-05-02T01:22:55.247Z,9.32
2018-05-02T01:23:55.113Z,9.30
2018-05-02T01:25:49.387Z,9.27
2018-05-02T01:26:49.300Z,9.30
2018-05-02T01:28:45.311Z,9.36
2018-05-02T01:29:45.213Z,9.42
2018-05-02T01:31:41.336Z,9.51
2018-05-02T01:32:41.127Z,9.51
2018-05-02T01:34:37.217Z,9.41
2018-05-02T01:35:37.012Z,9.40
2018-05-02T01:37:32.973Z,9.55
2018-05-02T01:38:32.897Z,9.51
2018-05-02T01:40:29.888Z,9.51
2018-05-02T01:41:29.630Z,9.54
2018-05-02T01:43:25.614Z,9.45
2018-05-02T01:44:25.559Z,9.54
2018-05-02T01:46:21.580Z,9.50
2018-05-02T01:47:21.418Z,9.37
2018-05-02T01:49:17.427Z,9.40
2018-05-02T01:50:17.306Z,9.36
2018-05-02T01:52:14.274Z,9.33
2018-05-02T01:53:14.112Z,9.40
2018-05-02T01:55:10.156Z,9.33
2018-05-02T01:56:10.054Z,9.30
2018-05-02T01:58:06.063Z,9.22
2018-05-02T01:59:05.920Z,9.19
2018-05-02T02:01:01.970Z,9.23
2018-05-02T02:02:01.795Z,9.27
2018-05-02T02:03:57.833Z,9.26
2018-05-02T02:04:57.661Z,9.26
2018-05-02T02:06:53.672Z,9.22
2018-05-02T02:07:53.597Z,9.16
2018-05-02T02:09:49.563Z,9.14
2018-05-02T02:10:49.459Z,9.22
2018-05-02T02:12:45.460Z,9.18
2018-05-02T02:13:45.364Z,9.12
2018-05-02T02:15:41.403Z,9.11
2018-05-02T02:16:41.257Z,9.11
2018-05-02T02:18:37.333Z,9.01
2018-05-02T02:19:37.103Z,8.95
2018-05-02T02:21:33.262Z,9.06
2018-05-02T02:22:33.083Z,8.99
2018-05-02T02:24:29.234Z,8.96
2018-05-02T02:25:28.945Z,8.99
2018-05-02T02:27:25.060Z,8.89
2018-05-02T02:28:24.830Z,8.96
2018-05-02T02:30:20.874Z,8.98
2018-05-02T02:31:20.694Z,9.03
2018-05-02T02:33:16.713Z,9.08
2018-05-02T02:34:16.639Z,8.93
2018-05-02T02:36:10.234Z,8.92
2018-05-02T02:37:10.100Z,8.95
2018-05-02T02:39:06.103Z,8.90
2018-05-02T02:40:05.967Z,8.85
2018-05-02T02:42:01.997Z,8.75
2018-05-02T02:43:01.820Z,8.67
2018-05-02T02:44:58.709Z,8.70
2018-05-02T02:45:58.585Z,8.70
2018-05-02T02:47:54.582Z,8.68
2018-05-02T02:48:54.481Z,8.80
2018-05-02T02:50:50.518Z,8.88
2018-05-02T02:51:50.349Z,8.85
2018-05-02T02:53:46.353Z,9.03
2018-05-02T02:54:46.260Z,9.06
2018-05-02T02:56:42.349Z,9.18
2018-05-02T02:57:42.220Z,9.23
2018-05-02T02:59:36.222Z,9.26
2018-05-02T03:00:35.718Z,9.18
2018-05-02T03:02:31.754Z,9.12
2018-05-02T03:03:31.597Z,9.01
2018-05-02T03:05:25.206Z,9.04
2018-05-02T03:06:25.035Z,8.92
2018-05-02T03:08:21.322Z,8.90
2018-05-02T03:09:21.133Z,8.90
2018-05-02T03:11:17.269Z,8.74
2018-05-02T03:12:17.075Z,8.59
2018-05-02T03:14:13.155Z,8.49
2018-05-02T03:15:12.968Z,8.46
2018-05-02T03:17:08.985Z,8.53
2018-05-02T03:18:08.842Z,8.50
2018-05-02T03:20:04.889Z,8.56
2018-05-02T03:21:04.730Z,8.57
2018-05-02T03:23:00.773Z,8.46
2018-05-02T03:24:00.661Z,8.47
2018-05-02T03:25:56.693Z,8.57
2018-05-02T03:26:56.540Z,8.62
2018-05-02T03:28:52.578Z,8.59
2018-05-02T03:29:52.415Z,8.57
2018-05-02T03:31:48.424Z,8.65
2018-05-02T03:32:48.309Z,8.59
2018-05-02T03:34:44.351Z,8.68
2018-05-02T03:35:44.244Z,8.55
2018-05-02T03:37:40.336Z,8.53
2018-05-02T03:38:40.215Z,8.52
2018-05-02T03:40:37.041Z,8.55
2018-05-02T03:41:36.915Z,8.52
2018-05-02T03:43:32.941Z,8.49
2018-05-02T03:44:32.846Z,8.39
2018-05-02T03:46:28.828Z,8.44
2018-05-02T03:47:28.694Z,8.35
2018-05-02T03:49:24.681Z,8.38
2018-05-02T03:50:24.568Z,8.50
2018-05-02T03:52:20.573Z,8.52
2018-05-02T03:53:20.449Z,8.52
2018-05-02T03:55:17.350Z,8.55
2018-05-02T03:56:17.157Z,8.44
2018-05-02T03:58:13.401Z,8.50
2018-05-02T03:59:13.188Z,8.46
2018-05-02T04:01:07.695Z,8.37
2018-05-02T04:02:07.627Z,8.46
2018-05-02T04:04:03.630Z,8.55
2018-05-02T04:05:03.492Z,8.50
2018-05-02T04:06:59.525Z,8.47
2018-05-02T04:07:59.396Z,8.49
2018-05-02T04:09:55.392Z,8.31
2018-05-02T04:10:55.333Z,8.31
2018-05-02T04:12:51.357Z,8.31
2018-05-02T04:15:07.305Z,8.19
2018-05-02T04:16:07.155Z,8.26
2018-05-02T04:18:03.171Z,8.17
2018-05-02T04:19:03.038Z,8.16
2018-05-02T04:20:59.118Z,8.20
2018-05-02T04:21:58.925Z,8.28
2018-05-02T04:23:54.985Z,8.32
2018-05-02T04:24:54.793Z,8.37
2018-05-02T04:26:50.786Z,8.44
2018-05-02T04:27:50.673Z,8.42
2018-05-02T04:29:46.725Z,8.38
2018-05-02T04:30:46.540Z,8.35
2018-05-02T04:32:42.607Z,8.13
2018-05-02T04:33:42.440Z,8.14
2018-05-02T04:35:38.429Z,8.23
2018-05-02T04:36:38.327Z,8.20
2018-05-02T04:38:34.352Z,8.29
2018-05-02T04:39:34.236Z,8.31
2018-05-02T04:41:30.285Z,8.23
2018-05-02T04:42:30.169Z,8.21
2018-05-02T04:44:26.219Z,8.26
2018-05-02T04:45:26.044Z,8.32
2018-05-02T04:47:22.136Z,8.23
2018-05-02T04:48:21.991Z,8.35
2018-05-02T04:50:18.398Z,8.34
2018-05-02T04:51:17.799Z,8.35
2018-05-02T04:53:13.818Z,8.44
2018-05-02T04:54:13.708Z,8.49
2018-05-02T04:56:09.786Z,8.47
2018-05-02T04:57:09.585Z,8.49
2018-05-02T04:59:05.635Z,8.62
2018-05-02T05:00:05.528Z,8.65
2018-05-02T05:02:01.751Z,8.72
2018-05-02T05:03:01.622Z,8.60
2018-05-02T05:04:57.646Z,8.62
2018-05-02T05:05:57.522Z,8.47
2018-05-02T05:07:53.550Z,8.34
2018-05-02T05:08:53.437Z,8.37
2018-05-02T05:10:49.524Z,8.32
2018-05-02T05:11:49.416Z,8.28
2018-05-02T05:13:45.431Z,8.37
2018-05-02T05:14:45.238Z,8.37
2018-05-02T05:16:41.364Z,8.42
2018-05-02T05:17:41.125Z,8.42
2018-05-02T05:19:38.113Z,8.49
2018-05-02T05:20:37.917Z,8.62
2018-05-02T05:22:31.497Z,8.63
2018-05-02T05:23:31.387Z,8.57
2018-05-02T05:25:27.494Z,8.52
2018-05-02T05:26:27.225Z,8.55
2018-05-02T05:28:23.504Z,8.50
2018-05-02T05:29:23.390Z,8.46
2018-05-02T05:31:19.451Z,8.56
2018-05-02T05:32:19.232Z,8.53
2018-05-02T05:34:15.347Z,8.65
2018-05-02T05:35:15.160Z,8.70
2018-05-02T05:37:11.114Z,8.72
2018-05-02T05:38:11.006Z,8.71
2018-05-02T05:40:06.787Z,8.80
2018-05-02T05:41:06.669Z,8.72
2018-05-02T05:43:02.691Z,8.80
2018-05-02T05:44:02.572Z,8.81
2018-05-02T05:45:56.095Z,8.85
2018-05-02T05:46:55.988Z,8.83
2018-05-02T05:48:52.028Z,8.81
2018-05-02T05:49:51.905Z,8.75
2018-05-02T05:51:47.903Z,8.86
2018-05-02T05:52:47.787Z,8.90
2018-05-02T05:54:43.801Z,8.90
2018-05-02T05:55:43.703Z,8.96
2018-05-02T05:57:40.179Z,9.01
2018-05-02T05:58:39.584Z,9.03
2018-05-02T06:00:36.059Z,9.08
2018-05-02T06:01:35.473Z,9.03
2018-05-02T06:03:31.551Z,9.09
2018-05-02T06:04:31.425Z,8.99
2018-05-02T06:06:27.482Z,9.19
2018-05-02T06:07:27.277Z,9.01
2018-05-02T06:09:23.260Z,9.23
2018-05-02T06:10:23.168Z,9.26
2018-05-02T06:12:19.188Z,9.27
2018-05-02T06:14:35.089Z,9.24
2018-05-02T06:15:34.979Z,9.22
2018-05-02T06:17:30.992Z,9.40
2018-05-02T06:18:30.873Z,9.44
2018-05-02T06:20:24.408Z,9.27
2018-05-02T06:21:24.405Z,9.37
2018-05-02T06:23:20.361Z,9.24
2018-05-02T06:24:20.245Z,9.34
2018-05-02T06:26:16.317Z,9.33
2018-05-02T06:27:16.154Z,9.44
2018-05-02T06:29:12.292Z,9.37
2018-05-02T06:30:12.074Z,9.51
2018-05-02T06:32:08.097Z,9.63
2018-05-02T06:33:07.969Z,9.59
2018-05-02T06:35:20.083Z,9.63
2018-05-02T06:36:19.938Z,9.62
2018-05-02T06:38:14.251Z,9.52
2018-05-02T06:39:14.056Z,9.63
2018-05-02T06:41:10.097Z,9.78
2018-05-02T06:42:09.963Z,9.75
2018-05-02T06:44:06.013Z,9.75
2018-05-02T06:45:05.892Z,9.84
2018-05-02T06:47:01.939Z,9.81
2018-05-02T06:48:01.809Z,9.96
2018-05-02T06:49:01.791Z,9.94
2018-05-02T06:50:01.766Z,9.96
2018-05-02T06:51:01.733Z,9.85
2018-05-02T06:52:01.757Z,9.91
2018-05-02T06:53:01.686Z,9.94
2018-05-02T06:54:01.665Z,9.91
2018-05-02T06:55:01.640Z,9.90
2018-05-02T06:56:01.639Z,9.90
2018-05-02T06:57:01.589Z,9.90
2018-05-02T06:58:01.572Z,9.94
2018-05-02T06:59:01.555Z,10.01
2018-05-02T07:00:01.561Z,10.02
2018-05-02T07:01:01.539Z,10.01
2018-05-02T07:02:01.543Z,10.06
2018-05-02T07:03:01.540Z,10.01
2018-05-02T07:04:01.543Z,10.01
2018-05-02T07:05:01.523Z,10.06
2018-05-02T07:06:01.443Z,10.06
2018-05-02T07:07:01.359Z,10.12
2018-05-02T07:08:01.337Z,10.10
2018-05-02T07:09:01.314Z,10.28
2018-05-02T07:10:01.330Z,10.31
2018-05-02T07:11:01.332Z,10.36
2018-05-02T07:12:01.243Z,10.39
2018-05-02T07:13:01.221Z,10.39
2018-05-02T07:14:01.198Z,10.36
2018-05-02T07:15:01.186Z,10.42
2018-05-02T07:16:01.154Z,10.43
2018-05-02T07:17:01.135Z,10.48
2018-05-02T07:18:01.106Z,10.45
2018-05-02T07:19:01.087Z,10.46
2018-05-02T07:20:01.061Z,10.58
2018-05-02T07:21:01.035Z,10.57
2018-05-02T07:22:01.025Z,10.64
2018-05-02T07:23:00.993Z,10.57
2018-05-02T07:24:00.969Z,10.61
2018-05-02T07:25:00.944Z,10.52
2018-05-02T07:26:00.920Z,10.49
2018-05-02T07:27:00.920Z,10.61
2018-05-02T07:28:00.884Z,10.48
2018-05-02T07:29:00.853Z,10.54
2018-05-02T07:30:00.827Z,10.55
2018-05-02T07:31:00.807Z,10.62
2018-05-02T07:32:00.786Z,10.65
2018-05-02T07:33:00.791Z,10.70
2018-05-02T07:34:00.739Z,10.72
2018-05-02T07:35:00.713Z,10.80
2018-05-02T07:36:00.695Z,10.79
2018-05-02T07:37:00.669Z,10.86
2018-05-02T07:38:00.651Z,10.79
2018-05-02T07:39:00.635Z,10.91
2018-05-02T07:40:00.608Z,10.94
2018-05-02T07:41:00.572Z,10.95
2018-05-02T07:42:00.560Z,10.98
2018-05-02T07:43:00.531Z,10.98
2018-05-02T07:44:00.504Z,10.97
2018-05-02T07:45:00.493Z,11.03
2018-05-02T07:46:00.460Z,10.94
2018-05-02T07:47:00.444Z,10.98
2018-05-02T07:48:00.464Z,11.01
2018-05-02T07:49:00.402Z,11.01
2018-05-02T07:50:00.422Z,11.12
2018-05-02T07:51:00.345Z,11.05
2018-05-02T07:52:00.327Z,11.20
2018-05-02T07:53:00.303Z,11.22
2018-05-02T07:54:00.276Z,11.22
2018-05-02T07:55:00.256Z,11.25
2018-05-02T07:56:00.264Z,11.22
2018-05-02T07:57:00.243Z,11.30
2018-05-02T07:58:00.193Z,11.22
2018-05-02T07:59:00.166Z,11.30
2018-05-02T08:00:00.138Z,11.37
2018-05-02T08:01:00.119Z,11.28
2018-05-02T08:02:00.095Z,11.34
2018-05-02T08:03:00.074Z,11.46
2018-05-02T08:04:00.057Z,11.31
2018-05-02T08:05:00.031Z,11.38
2018-05-02T08:06:00.002Z,11.28
2018-05-02T08:06:59.981Z,11.34
2018-05-02T08:07:59.957Z,11.43
2018-05-02T08:08:59.939Z,11.37
2018-05-02T08:09:59.922Z,11.49
2018-05-02T08:10:59.905Z,11.46
2018-05-02T08:11:59.866Z,11.45
2018-05-02T08:12:59.842Z,11.45
2018-05-02T08:13:59.822Z,11.48
2018-05-02T08:14:59.797Z,11.56
2018-05-02T08:15:59.777Z,11.54
2018-05-02T08:16:59.754Z,11.52
2018-05-02T08:17:59.733Z,11.52
2018-05-02T08:18:59.709Z,11.54
2018-05-02T08:19:59.689Z,11.52
2018-05-02T08:20:59.691Z,11.51
2018-05-02T08:21:59.719Z,11.58
2018-05-02T08:22:59.618Z,11.66
2018-05-02T08:23:59.618Z,11.70
2018-05-02T08:24:59.625Z,11.74
2018-05-02T08:25:59.627Z,11.74
2018-05-02T08:26:59.634Z,11.80
2018-05-02T08:27:59.649Z,11.88
2018-05-02T08:28:59.594Z,12.04
2018-05-02T08:29:59.553Z,12.10
2018-05-02T08:30:59.437Z,12.11
2018-05-02T08:31:59.411Z,12.05
2018-05-02T08:32:59.435Z,12.07
2018-05-02T08:33:59.363Z,12.15
2018-05-02T08:34:59.353Z,12.22
2018-05-02T08:35:59.324Z,12.17
2018-05-02T08:36:59.299Z,12.23
2018-05-02T08:37:59.275Z,12.25
2018-05-02T08:38:59.370Z,12.25
2018-05-02T08:39:59.234Z,12.32
2018-05-02T08:40:59.211Z,12.35
2018-05-02T08:41:59.260Z,12.36
2018-05-02T08:42:59.167Z,12.30
2018-05-02T08:43:59.147Z,12.46
2018-05-02T08:44:59.119Z,12.43
2018-05-02T08:45:59.138Z,12.46
2018-05-02T08:47:05.802Z,12.54
2018-05-02T08:47:59.058Z,12.53
2018-05-02T08:48:59.042Z,12.58
2018-05-02T08:49:59.092Z,12.65
2018-05-02T08:50:58.989Z,12.61
2018-05-02T08:51:58.967Z,12.62
2018-05-02T08:52:58.969Z,12.65
2018-05-02T08:53:58.915Z,12.62
2018-05-02T08:54:58.915Z,12.68
2018-05-02T08:55:58.875Z,12.73
2018-05-02T08:56:58.898Z,12.80
2018-05-02T08:57:58.850Z,12.71
2018-05-02T08:58:58.805Z,12.79
2018-05-02T08:59:58.786Z,12.80
2018-05-02T09:00:58.771Z,12.87
2018-05-02T09:01:58.746Z,12.86
2018-05-02T09:02:58.738Z,12.86
2018-05-02T09:03:58.698Z,12.99
2018-05-02T09:04:58.675Z,13.02
2018-05-02T09:05:58.652Z,12.96
2018-05-02T09:06:58.637Z,13.02
2018-05-02T09:07:58.608Z,13.01
2018-05-02T09:08:58.600Z,13.01
2018-05-02T09:09:58.635Z,12.99
2018-05-02T09:10:58.541Z,13.01
2018-05-02T09:11:58.522Z,12.88
2018-05-02T09:12:58.496Z,12.90
2018-05-02T09:13:58.489Z,12.84
2018-05-02T09:14:58.453Z,12.90
2018-05-02T09:15:58.434Z,12.87
2018-05-02T09:16:58.409Z,12.93
2018-05-02T09:17:58.390Z,12.98
2018-05-02T09:18:58.371Z,12.88
2018-05-02T09:19:58.345Z,13.04
2018-05-02T09:20:58.329Z,13.04
2018-05-02T09:21:58.298Z,12.99
2018-05-02T09:22:58.279Z,12.98
2018-05-02T09:23:58.254Z,12.95
2018-05-02T09:24:58.241Z,12.99
2018-05-02T09:25:58.212Z,12.99
2018-05-02T09:26:58.193Z,13.01
2018-05-02T09:27:58.172Z,13.06
2018-05-02T09:28:58.146Z,13.06
2018-05-02T09:29:58.126Z,13.02
2018-05-02T09:30:58.115Z,13.08
2018-05-02T09:31:58.077Z,13.04
2018-05-02T09:32:58.059Z,13.02
2018-05-02T09:33:58.040Z,13.02
2018-05-02T09:34:58.027Z,13.04
2018-05-02T09:35:57.990Z,13.04
2018-05-02T09:36:57.973Z,13.08
2018-05-02T09:37:57.947Z,13.04
2018-05-02T09:38:57.925Z,13.16
2018-05-02T09:39:59.039Z,13.14
2018-05-02T09:40:57.884Z,13.13
2018-05-02T09:41:57.870Z,13.17
2018-05-02T09:42:57.851Z,13.14
2018-05-02T09:43:57.826Z,13.16
2018-05-02T09:44:57.801Z,13.21
2018-05-02T09:45:57.778Z,13.20
2018-05-02T09:46:57.754Z,13.17
2018-05-02T09:47:57.728Z,13.30
2018-05-02T09:48:57.708Z,13.38
2018-05-02T09:49:57.703Z,13.42
2018-05-02T09:50:57.699Z,13.40
2018-05-02T09:51:57.727Z,13.46
2018-05-02T09:52:57.697Z,13.39
2018-05-02T09:53:57.700Z,13.42
2018-05-02T09:54:57.721Z,13.49
2018-05-02T09:55:57.590Z,13.54
2018-05-02T09:56:57.583Z,13.53
2018-05-02T09:57:57.517Z,13.55
2018-05-02T09:58:57.505Z,13.57
2018-05-02T09:59:57.466Z,13.72
2018-05-02T10:00:58.387Z,13.73
2018-05-02T10:01:57.421Z,13.79
2018-05-02T10:02:57.404Z,13.83
2018-05-02T10:03:57.375Z,13.85
2018-05-02T10:04:57.357Z,13.82
2018-05-02T10:05:57.335Z,13.93
2018-05-02T10:06:57.310Z,13.86
2018-05-02T10:07:57.292Z,13.86
2018-05-02T10:08:57.270Z,13.86
2018-05-02T10:09:57.266Z,13.91
2018-05-02T10:10:57.231Z,13.96
2018-05-02T10:11:57.208Z,13.96
2018-05-02T10:12:57.186Z,14.03
2018-05-02T10:13:57.160Z,13.98
2018-05-02T10:14:57.138Z,14.03
2018-05-02T10:15:57.117Z,14.04
2018-05-02T10:16:57.095Z,13.96
2018-05-02T10:17:57.076Z,13.94
2018-05-02T10:18:57.054Z,14.09
2018-05-02T10:19:57.036Z,14.09
2018-05-02T10:20:57.008Z,14.21
2018-05-02T10:21:57.792Z,14.12
2018-05-02T10:22:56.964Z,14.16
2018-05-02T10:23:56.947Z,14.23
2018-05-02T10:24:56.922Z,14.13
2018-05-02T10:25:56.899Z,14.11
2018-05-02T10:26:56.890Z,14.13
2018-05-02T10:27:56.857Z,14.18
2018-05-02T10:28:56.836Z,14.23
2018-05-02T10:29:56.811Z,14.36
2018-05-02T10:30:56.833Z,14.33
2018-05-02T10:31:56.804Z,14.45
2018-05-02T10:32:56.796Z,14.49
2018-05-02T10:33:56.725Z,14.58
2018-05-02T10:34:56.723Z,14.61
2018-05-02T10:35:56.682Z,14.66
2018-05-02T10:36:56.710Z,14.58
2018-05-02T10:37:56.639Z,14.73
2018-05-02T10:38:56.621Z,14.63
2018-05-02T10:39:56.597Z,14.63
2018-05-02T10:40:56.577Z,14.64
2018-05-02T10:41:56.554Z,14.64
2018-05-02T10:42:56.852Z,14.61
2018-05-02T10:43:56.518Z,14.77
2018-05-02T10:44:56.497Z,14.79
2018-05-02T10:45:56.478Z,14.82
2018-05-02T10:46:56.446Z,14.82
2018-05-02T10:49:28.700Z,14.89
2018-05-02T10:50:28.588Z,14.82
2018-05-02T10:52:24.670Z,14.89
2018-05-02T10:53:24.529Z,14.96
2018-05-02T10:55:20.787Z,14.97
2018-05-02T10:56:20.615Z,14.82
2018-05-02T10:58:16.758Z,14.82
2018-05-02T10:59:16.662Z,14.90
2018-05-02T11:01:11.267Z,14.93
2018-05-02T11:02:11.153Z,14.90
2018-05-02T11:04:07.220Z,14.93
2018-05-02T11:05:07.069Z,15.11
2018-05-02T11:07:00.678Z,15.22
2018-05-02T11:08:00.561Z,15.23
2018-05-02T11:09:56.571Z,15.47
2018-05-02T11:10:56.451Z,15.47
2018-05-02T11:12:52.951Z,15.66
2018-05-02T11:13:52.374Z,15.81
2018-05-02T11:15:48.384Z,15.96
2018-05-02T11:16:48.286Z,16.02
2018-05-02T11:18:44.315Z,16.06
2018-05-02T11:19:44.208Z,16.10
2018-05-02T11:21:40.220Z,16.36
2018-05-02T11:22:40.109Z,16.37
2018-05-02T11:24:36.156Z,16.37
2018-05-02T11:25:35.997Z,16.39
2018-05-02T11:27:32.033Z,16.52
2018-05-02T11:28:31.930Z,16.51
2018-05-02T11:30:28.061Z,16.70
2018-05-02T11:31:27.951Z,16.72
2018-05-02T11:33:24.064Z,16.94
2018-05-02T11:34:23.942Z,17.02
2018-05-02T11:36:19.950Z,17.06
2018-05-02T11:37:19.844Z,16.99
2018-05-02T11:39:15.899Z,17.06
2018-05-02T11:40:15.783Z,17.14
2018-05-02T11:42:11.877Z,17.06
2018-05-02T11:43:11.806Z,16.94
2018-05-02T11:45:07.806Z,17.01
2018-05-02T11:46:07.608Z,16.98
2018-05-02T11:48:03.834Z,16.94
2018-05-02T11:49:03.621Z,16.92
2018-05-02T11:50:59.807Z,17.04
2018-05-02T11:51:59.609Z,16.94
2018-05-02T11:53:55.769Z,16.94
2018-05-02T11:54:55.575Z,16.99
2018-05-02T11:56:51.584Z,16.94
2018-05-02T11:57:51.541Z,16.98
2018-05-02T11:59:47.505Z,16.91
2018-05-02T12:00:47.375Z,16.95
2018-05-02T12:02:44.439Z,16.82
2018-05-02T12:03:44.230Z,16.72
2018-05-02T12:05:40.306Z,16.65
2018-05-02T12:06:40.189Z,16.62
2018-05-02T12:08:36.262Z,16.76
2018-05-02T12:09:36.094Z,16.73
2018-05-02T12:11:32.153Z,16.69
2018-05-02T12:12:32.046Z,16.80
2018-05-02T12:14:28.027Z,17.01
2018-05-02T12:15:27.908Z,16.98
2018-05-02T12:17:23.942Z,17.01
2018-05-02T12:18:23.833Z,17.07
2018-05-02T12:20:19.921Z,17.02
2018-05-02T12:21:19.835Z,17.04
2018-05-02T12:23:16.274Z,16.98
2018-05-02T12:24:15.820Z,16.88
2018-05-02T12:26:11.894Z,17.04
2018-05-02T12:27:11.649Z,17.16
2018-05-02T12:29:07.839Z,17.32
2018-05-02T12:30:07.643Z,17.47
2018-05-02T12:32:03.836Z,17.46
2018-05-02T12:33:03.643Z,17.53
2018-05-02T12:34:57.184Z,17.57
2018-05-02T12:35:57.509Z,17.66
2018-05-02T12:37:53.094Z,17.73
2018-05-02T12:38:52.996Z,17.76
2018-05-02T12:40:49.014Z,17.75
2018-05-02T12:41:48.888Z,17.90
2018-05-02T12:43:44.942Z,17.75
2018-05-02T12:44:44.796Z,17.71
2018-05-02T12:46:40.929Z,17.68
2018-05-02T12:47:40.756Z,17.57
2018-05-02T12:49:44.973Z,17.52
2018-05-02T12:50:44.849Z,17.52
2018-05-02T12:52:40.918Z,17.37
2018-05-02T12:53:40.809Z,17.41
2018-05-02T12:55:36.967Z,17.28
2018-05-02T12:56:36.863Z,17.19
2018-05-02T12:57:36.832Z,17.19
2018-05-02T12:58:36.813Z,17.06
2018-05-02T12:59:36.790Z,17.02
2018-05-02T13:00:36.796Z,17.07
2018-05-02T13:01:36.755Z,17.01
2018-05-02T13:02:36.823Z,16.94
2018-05-02T13:03:36.732Z,17.04
2018-05-02T13:04:36.690Z,16.99
2018-05-02T13:05:36.678Z,16.95
2018-05-02T13:06:36.651Z,16.95
2018-05-02T13:07:36.634Z,16.94
2018-05-02T13:08:36.617Z,16.92
2018-05-02T13:09:36.595Z,17.01
2018-05-02T13:10:36.573Z,16.90
2018-05-02T13:11:36.568Z,16.95
2018-05-02T13:12:36.541Z,17.02
2018-05-02T13:13:36.522Z,16.97
2018-05-02T13:14:36.497Z,16.95
2018-05-02T13:15:36.520Z,17.01
2018-05-02T13:16:36.460Z,16.98
2018-05-02T13:17:36.436Z,16.91
2018-05-02T13:18:36.417Z,16.80
2018-05-02T13:19:36.398Z,16.88
2018-05-02T13:20:36.381Z,16.77
2018-05-02T13:21:36.357Z,16.77
2018-05-02T13:22:36.335Z,16.64
2018-05-02T13:23:36.322Z,16.58
2018-05-02T13:24:36.297Z,16.72
2018-05-02T13:27:11.018Z,16.64
2018-05-02T13:28:10.908Z,16.69
2018-05-02T13:30:06.926Z,16.69
2018-05-02T13:31:06.811Z,16.72
2018-05-02T13:33:02.973Z,16.61
2018-05-02T13:34:02.802Z,16.74
2018-05-02T13:35:58.969Z,16.72
2018-05-02T13:36:58.847Z,16.54
2018-05-02T13:38:55.492Z,16.57
2018-05-02T13:39:54.815Z,16.54
2018-05-02T13:41:50.923Z,16.62
2018-05-02T13:42:50.820Z,16.46
2018-05-02T13:44:46.921Z,16.55
2018-05-02T13:45:46.834Z,16.51
2018-05-02T13:47:40.599Z,16.47
2018-05-02T13:48:40.498Z,16.47
2018-05-02T13:50:34.052Z,16.44
2018-05-02T13:51:33.930Z,16.42
2018-05-02T13:53:29.993Z,16.42
2018-05-02T13:54:29.898Z,16.36
2018-05-02T13:56:25.948Z,16.39
2018-05-02T13:57:25.735Z,16.32
2018-05-02T13:59:30.016Z,16.36
2018-05-02T14:00:29.906Z,16.39
2018-05-02T14:02:25.962Z,16.42
2018-05-02T14:03:25.809Z,16.42
2018-05-02T14:05:21.924Z,16.39
2018-05-02T14:06:22.177Z,16.34
2018-05-02T14:08:17.975Z,16.37
2018-05-02T14:09:17.629Z,16.26
2018-05-02T14:11:13.665Z,16.21
2018-05-02T14:12:13.552Z,16.24
2018-05-02T14:14:09.565Z,16.24
2018-05-02T14:15:09.462Z,16.06
2018-05-02T14:17:03.064Z,16.13
2018-05-02T14:18:03.270Z,16.24
2018-05-02T14:19:58.920Z,16.24
2018-05-02T14:20:58.845Z,16.09
2018-05-02T14:22:54.971Z,16.08
2018-05-02T14:23:54.844Z,16.22
2018-05-02T14:25:51.001Z,16.18
2018-05-02T14:26:50.869Z,16.17
2018-05-02T14:28:46.993Z,16.21
2018-05-02T14:29:46.874Z,16.22
2018-05-02T14:31:43.009Z,16.18
2018-05-02T14:32:42.909Z,16.14
2018-05-02T14:34:39.033Z,16.16
2018-05-02T14:35:38.917Z,16.14
2018-05-02T14:37:32.552Z,16.10
2018-05-02T14:38:32.452Z,16.17
2018-05-02T14:40:28.484Z,16.17
2018-05-02T14:41:28.398Z,16.08
2018-05-02T14:43:24.419Z,16.03
2018-05-02T14:44:24.319Z,16.02
2018-05-02T14:46:20.353Z,15.99
2018-05-02T14:47:20.241Z,15.99
2018-05-02T14:49:16.281Z,16.05
2018-05-02T14:50:16.161Z,15.93
2018-05-02T14:52:12.182Z,15.99
2018-05-02T14:53:12.070Z,16.00
2018-05-02T14:55:08.101Z,16.00
2018-05-02T14:56:07.990Z,16.03
2018-05-02T14:58:04.054Z,15.96
2018-05-02T14:59:03.958Z,16.02
2018-05-02T15:01:00.006Z,15.98
2018-05-02T15:01:59.870Z,15.98
2018-05-02T15:03:55.987Z,16.05
2018-05-02T15:04:55.789Z,16.05
2018-05-02T15:06:51.987Z,16.09
2018-05-02T15:07:51.787Z,16.10
2018-05-02T15:09:47.787Z,16.13
2018-05-02T15:10:47.685Z,16.09
2018-05-02T15:12:43.753Z,16.21
2018-05-02T15:13:43.576Z,16.18
2018-05-02T15:15:37.112Z,16.28
2018-05-02T15:16:37.002Z,16.25
2018-05-02T15:18:33.026Z,16.22
2018-05-02T15:19:32.897Z,16.22
2018-05-02T15:21:29.043Z,16.33
2018-05-02T15:22:28.933Z,16.29
2018-05-02T15:24:25.025Z,16.26
2018-05-02T15:25:24.913Z,16.24
2018-05-02T15:27:18.532Z,16.29
2018-05-02T15:28:18.399Z,16.32
2018-05-02T15:29:18.376Z,16.24
2018-05-02T15:30:19.191Z,16.22
2018-05-02T15:31:18.334Z,16.25
2018-05-02T15:32:18.310Z,16.25
2018-05-02T15:33:18.296Z,16.22
2018-05-02T15:34:18.273Z,16.18
2018-05-02T15:35:18.253Z,16.34
2018-05-02T15:36:18.231Z,16.21
2018-05-02T15:37:18.210Z,16.26
2018-05-02T15:38:18.191Z,16.36
2018-05-02T15:39:18.182Z,16.32
2018-05-02T15:40:18.182Z,16.34
2018-05-02T15:41:18.138Z,16.28
2018-05-02T15:42:18.109Z,16.26
2018-05-02T15:43:18.090Z,16.26
2018-05-02T15:44:18.078Z,16.24
2018-05-02T15:45:18.050Z,16.26
2018-05-02T15:46:18.034Z,16.32
2018-05-02T15:47:18.019Z,16.21
2018-05-02T15:48:18.012Z,16.18
2018-05-02T15:49:18.065Z,16.28
2018-05-02T15:50:18.012Z,16.21
2018-05-02T15:51:18.574Z,16.17
2018-05-02T15:52:17.987Z,16.10
2018-05-02T15:53:17.927Z,16.09
2018-05-02T15:54:17.950Z,16.16
2018-05-02T15:55:17.850Z,16.14
2018-05-02T15:56:17.836Z,16.14
2018-05-02T15:57:17.809Z,16.10
2018-05-02T15:58:17.905Z,16.13
2018-05-02T15:59:17.773Z,16.14
2018-05-02T16:00:17.747Z,16.09
2018-05-02T16:01:17.727Z,16.10
2018-05-02T16:02:17.724Z,16.06
2018-05-02T16:03:17.689Z,16.14
2018-05-02T16:04:17.663Z,16.05
2018-05-02T16:05:17.644Z,15.99
2018-05-02T16:06:17.624Z,15.99
2018-05-02T16:07:17.778Z,16.03
2018-05-02T16:08:17.593Z,16.06
2018-05-02T16:09:17.607Z,15.98
2018-05-02T16:10:17.542Z,16.02
2018-05-02T16:11:17.523Z,15.99
2018-05-02T16:12:17.748Z,16.03
2018-05-02T16:13:17.483Z,15.98
2018-05-02T16:14:17.461Z,15.91
2018-05-02T16:15:17.443Z,16.05
2018-05-02T16:16:17.478Z,15.99
2018-05-02T16:17:17.409Z,15.96
2018-05-02T16:18:17.386Z,15.96
2018-05-02T16:19:17.360Z,15.96
2018-05-02T16:20:17.340Z,15.99
2018-05-02T16:21:17.319Z,15.95
2018-05-02T16:22:17.297Z,15.96
2018-05-02T16:23:17.283Z,16.06
2018-05-02T16:24:17.258Z,15.96
2018-05-02T16:25:17.241Z,16.02
2018-05-02T16:26:17.219Z,15.93
2018-05-02T16:28:52.082Z,15.88
2018-05-02T16:29:51.876Z,15.84
2018-05-02T16:31:48.096Z,15.91
2018-05-02T16:32:47.985Z,15.87
2018-05-02T16:34:44.144Z,15.88
2018-05-02T16:35:43.877Z,15.88
2018-05-02T16:37:40.053Z,15.87
2018-05-02T16:38:39.841Z,15.81